Pagrindinis puslapis
METAR-TAF:

METAR-TAF

Oro uostai :

Eindhovenas, Nyderlandai

platuma: 51-27N, ilguma: 005-25E, Aukštis: 23 m

Dabartinis oras

Ataskaita buvo paskelbta 32 minutes, ne 03:25 UTC
Vėjas 6 kt iš Šiaurės Rytų
Temperatūra 13°C
Drėgmė 58%
Slėgis 1022 hPa
Matomumas 10 km arba daugiau

METAR: EHEH 310325Z AUTO 05006KT 9999 NCD 13/05 Q1022 BLU

Laikas: 05:57 (03:57 UTC)

Prognozė

Ataskaita buvo paskelbta 4 valandos ir 22 minutes, ne 23:35 UTC
Prognozė galioja nuo 31 metu 00 UTC su 01 metu 06 UTC
Vėjas 4 kt iš Šiaurės Rytų
Matomumas 10 km arba daugiau
nėra debesų žemiau 1500 m ir nėra kamuolinių lietaus debesų
Tapsmas
nuo 31 metu 07 UTC su 31 metu 09 UTC
Vėjas 12 kt iš Rytų/Šiaurės Rytų su gūsio iki 25 kt
Tapsmas
nuo 31 metu 18 UTC su 31 metu 21 UTC
Vėjas 6 kt iš Rytų/Šiaurės Rytų

TAF: EHEH 302335Z 3100/0106 04004KT CAVOK BECMG 3107/3109 07012G25KT BECMG 3118/3121 07006KT

Orai ataskaitas ir orų prognozės (METAR, TAF).

turimą stotys yra geltonos ir raudonos taškus žemėlapyje.

Perkelti pele per norėdami pamatyti stoties vardą.

Tada spustelėkite, norėdami matyti oro stebėjimo ir prognozės.

Norėdami pakeisti žemėlapį: spustelėkite ant žalios mygtukų su juodo kryžiaus žemyn,; žalią mygtuką su brūkšneliu, jei norite nutolinti; arba žalių rodyklių gretimoms žemėlapius.


METAR-TAF: